Roberta, Georgia
Current Conditions -  °F | °C
As of 9:35 AM on Monday 26 Jan 2015 (Local Time) from KPXE Reporting Station
Broken Clouds Broken Clouds  
Wind Chill: 10°   Ceiling: 3000
Heat Index: 10°   Visibility: 10mi
Dew Point:   Wind: 15mph
Humidity: 69%   Direction: 290°WNW
Pressure: 29.83"   Gusts: 21mph
Location:  32.72°N, 84.01°W
Report Text: KPXE 261435Z AUTO 29013G18KT 10SM SCT022 BKN030 10/05 A2983 RMK AO2 T01020047
Loading
Personal Weather Stations






























Interactive Weather Map New forecast layout! Learn more

10-Day Weather Forecast

Advertisements
Track Severe Weather on mobile